Time;durP1;ratioP1;P1;durP2;ratioP2;P2;SDS_P1;SDS_P2;PMS_P1;PMS_P2;Temp;Humidity;BMP_temperature;BMP_pressure;BME280_temperature;BME280_humidity;BME280_pressure;Samples;Min_cycle;Max_cycle;Signal;HPM_P1;HPM_P2
2023/05/18 00:02:06;;;;;;;7.82;3.92;;;;;;;12.32;96.66;94709.94;5047104;28;20037;-78
2023/05/18 00:04:36;;;;;;;12.23;4.25;;;;;;;12.37;95.49;94715.94;5036980;28;20726;-77
2023/05/18 00:07:03;;;;;;;7.40;3.65;;;;;;;12.09;95.46;94700.28;5045104;28;20512;-77
2023/05/18 00:09:30;;;;;;;5.00;3.30;;;;;;;12.29;94.18;94723.81;5041449;28;20043;-78
2023/05/18 00:11:57;;;;;;;6.32;2.60;;;;;;;11.87;93.24;94687.66;5085014;28;20080;-78
2023/05/18 00:14:22;;;;;;;4.97;2.67;;;;;;;11.57;93.85;94639.28;5052425;28;20040;-78
2023/05/18 00:16:48;;;;;;;4.75;3.00;;;;;;;12.30;94.48;94731.50;5051511;28;20479;-78
2023/05/18 00:19:14;;;;;;;5.80;3.15;;;;;;;12.50;93.69;94737.53;5051117;28;20033;-78
2023/05/18 00:21:47;;;;;;;4.32;2.90;;;;;;;11.87;92.70;94631.84;5036857;28;20601;-78
2023/05/18 00:24:16;;;;;;;4.43;2.72;;;;;;;12.50;92.78;94727.69;5051086;28;20141;-78
2023/05/18 00:26:45;;;;;;;3.60;2.17;;;;;;;12.08;91.13;94672.91;5070448;28;20075;-78
2023/05/18 00:29:11;;;;;;;2.75;2.00;;;;;;;12.16;91.33;94696.16;5048209;28;20036;-78
2023/05/18 00:31:37;;;;;;;4.68;1.52;;;;;;;11.93;90.76;94663.34;5037383;28;20029;-78
2023/05/18 00:34:13;;;;;;;2.75;1.33;;;;;;;12.48;91.21;94732.50;5050923;28;20090;-78
2023/05/18 00:36:39;;;;;;;4.28;1.10;;;;;;;12.13;88.56;94693.31;5075002;28;20033;-78
2023/05/18 00:39:05;;;;;;;1.58;1.10;;;;;;;12.13;88.39;94696.72;5052266;28;20039;-78
2023/05/18 00:41:31;;;;;;;0.68;0.68;;;;;;;12.46;89.14;94740.00;5051613;28;20040;-78
2023/05/18 00:43:58;;;;;;;2.70;1.00;;;;;;;11.89;87.98;94654.41;5085001;28;20047;-78
2023/05/18 00:46:25;;;;;;;1.63;0.60;;;;;;;12.24;88.31;94710.63;5052192;28;20518;-78
2023/05/18 00:48:52;;;;;;;1.10;0.73;;;;;;;11.88;88.04;94638.75;5050527;28;20028;-78
2023/05/18 00:51:19;;;;;;;2.67;0.95;;;;;;;12.15;87.92;94683.94;5084618;28;20584;-78
2023/05/18 00:53:46;;;;;;;3.17;1.63;;;;;;;12.40;88.18;94727.88;5052459;28;20029;-78
2023/05/18 00:56:11;;;;;;;3.65;1.50;;;;;;;12.46;89.18;94717.91;5033344;28;20068;-79
2023/05/18 00:58:38;;;;;;;3.53;1.80;;;;;;;12.57;89.92;94727.28;5052520;28;20037;-79
2023/05/18 01:01:05;;;;;;;7.90;2.03;;;;;;;11.92;90.40;94627.22;5050946;28;20051;-78
2023/05/18 01:03:38;;;;;;;3.00;2.00;;;;;;;12.37;90.70;94705.31;5051198;28;20055;-79
2023/05/18 01:06:04;;;;;;;3.00;1.90;;;;;;;12.43;90.69;94721.19;5050434;28;20389;-79
2023/05/18 01:08:31;;;;;;;5.60;2.35;;;;;;;12.43;91.66;94724.63;5052826;28;20033;-79
2023/05/18 01:11:23;;;;;;;6.40;2.55;;;;;;;12.42;91.99;94727.59;5084065;28;20040;-79
2023/05/18 01:14:04;;;;;;;6.38;2.80;;;;;;;12.04;91.83;94666.63;5050967;28;20036;-79
2023/05/18 01:16:36;;;;;;;4.18;2.00;;;;;;;12.50;90.81;94722.38;5084505;28;20049;-79
2023/05/18 01:19:08;;;;;;;5.55;1.92;;;;;;;11.80;90.86;94642.88;5033854;28;20033;-79
2023/05/18 01:21:59;;;;;;;2.55;2.20;;;;;;;11.76;91.83;94633.91;5084848;28;20033;-79
2023/05/18 01:24:47;;;;;;;7.85;2.30;;;;;;;12.40;91.44;94729.75;5050896;28;20412;-79
2023/05/18 01:27:16;;;;;;;2.20;2.00;;;;;;;12.34;91.75;94711.25;5050972;28;20140;-78
2023/05/18 01:29:43;;;;;;;3.55;2.42;;;;;;;12.58;91.75;94734.19;5084733;28;20064;-78
2023/05/18 01:32:08;;;;;;;3.38;2.00;;;;;;;12.49;90.95;94710.16;5083741;28;20037;-78
2023/05/18 01:34:34;;;;;;;3.50;2.08;;;;;;;11.89;91.36;94589.84;5051320;28;20032;-78
2023/05/18 01:37:00;;;;;;;2.10;1.70;;;;;;;12.76;90.66;94710.13;5035011;28;20060;-78
2023/05/18 01:39:25;;;;;;;2.70;1.80;;;;;;;12.63;89.02;94710.13;5084471;28;20037;-78
2023/05/18 01:41:57;;;;;;;5.47;2.13;;;;;;;12.34;90.14;94670.56;5083670;28;20045;-78
2023/05/18 01:44:33;;;;;;;4.15;2.10;;;;;;;12.96;90.57;94727.56;5045382;28;20036;-78
2023/05/18 01:46:59;;;;;;;5.85;2.30;;;;;;;13.02;89.93;94725.56;5043582;28;20518;-78
2023/05/18 01:49:37;;;;;;;5.03;1.92;;;;;;;12.16;89.53;94634.22;5055728;28;20059;-78
2023/05/18 01:52:07;;;;;;;2.83;2.10;;;;;;;12.53;88.92;94689.84;5053888;28;20041;-78
2023/05/18 01:54:36;;;;;;;2.92;2.00;;;;;;;12.28;90.13;94653.16;5053927;28;20037;-78
2023/05/18 01:57:05;;;;;;;6.53;2.10;;;;;;;12.70;89.88;94706.00;5055778;28;20044;-79
2023/05/18 01:59:32;;;;;;;6.60;2.17;;;;;;;12.90;89.48;94718.06;5055840;28;20088;-79
2023/05/18 02:02:02;;;;;;;2.95;1.80;;;;;;;13.28;89.27;94736.44;5055219;28;20187;-79
2023/05/18 02:04:27;;;;;;;3.83;2.20;;;;;;;13.03;87.51;94711.16;5055456;28;20037;-79
2023/05/18 02:06:54;;;;;;;3.92;2.35;;;;;;;12.85;88.53;94741.34;5034106;28;20036;-78
2023/05/18 02:09:20;;;;;;;4.00;2.00;;;;;;;12.65;89.10;94686.69;5041163;28;20384;-78
2023/05/18 02:11:46;;;;;;;4.75;2.40;;;;;;;12.75;88.57;94708.53;5054065;28;20032;-78
2023/05/18 02:14:12;;;;;;;7.03;2.20;;;;;;;13.12;88.42;94738.66;5055179;28;20061;-78
2023/05/18 02:16:37;;;;;;;3.70;2.72;;;;;;;13.17;88.28;94722.59;5034153;28;20037;-78
2023/05/18 02:19:03;;;;;;;5.38;2.70;;;;;;;13.31;87.84;94744.63;5035142;28;20099;-78
2023/05/18 02:21:28;;;;;;;4.25;2.22;;;;;;;13.28;88.27;94737.25;5048879;28;20478;-78
2023/05/18 02:23:54;;;;;;;4.18;2.25;;;;;;;12.73;87.74;94660.19;5052873;28;20061;-78
2023/05/18 02:26:20;;;;;;;3.67;2.30;;;;;;;13.17;87.86;94722.59;5037580;28;20030;-78
2023/05/18 02:28:45;;;;;;;3.78;2.50;;;;;;;12.72;88.44;94679.09;5052704;28;20032;-79
2023/05/18 02:31:11;;;;;;;3.65;2.05;;;;;;;13.02;88.63;94714.91;5070157;28;20072;-78
2023/05/18 02:33:40;;;;;;;2.88;1.65;;;;;;;12.91;88.40;94708.22;5055124;28;20510;-78
2023/05/18 02:36:11;;;;;;;5.43;2.33;;;;;;;12.77;88.58;94676.31;5054995;28;20368;-79
2023/05/18 02:38:41;;;;;;;2.65;1.98;;;;;;;13.24;87.91;94716.84;5054896;28;20035;-78
2023/05/18 02:41:07;;;;;;;4.78;2.88;;;;;;;13.25;87.32;94713.91;5053976;28;20102;-79
2023/05/18 02:43:33;;;;;;;2.60;1.83;;;;;;;13.45;86.61;94739.25;5054519;28;20445;-79
2023/05/18 02:45:58;;;;;;;2.53;2.15;;;;;;;13.09;86.50;94684.13;5086544;28;20127;-79
2023/05/18 02:48:24;;;;;;;4.85;2.75;;;;;;;13.44;87.05;94735.81;5054949;28;20032;-78
2023/05/18 02:50:49;;;;;;;5.25;3.17;;;;;;;13.16;86.19;94681.06;5054651;28;20055;-78
2023/05/18 02:53:15;;;;;;;3.55;2.60;;;;;;;13.48;85.85;94747.44;5052195;28;20029;-78
2023/05/18 02:55:42;;;;;;;4.00;2.72;;;;;;;13.48;86.16;94734.13;5040833;28;20452;-78
2023/05/18 02:58:08;;;;;;;4.07;3.45;;;;;;;13.71;86.43;94758.13;5048106;28;20733;-78
2023/05/18 03:00:34;;;;;;;5.80;3.92;;;;;;;13.05;85.25;94663.72;5038781;28;20037;-78
2023/05/18 03:03:00;;;;;;;3.55;2.90;;;;;;;12.98;86.32;94740.53;5034012;28;20044;-78
2023/05/18 03:05:26;;;;;;;7.22;3.10;;;;;;;13.19;86.30;94776.34;5052297;28;20117;-78
2023/05/18 03:07:53;;;;;;;4.00;2.72;;;;;;;12.96;85.72;94746.19;5054105;28;20061;-78
2023/05/18 03:10:20;;;;;;;5.63;3.45;;;;;;;12.80;86.58;94714.84;5054052;28;20750;-78
2023/05/18 03:12:46;;;;;;;6.65;2.92;;;;;;;13.24;85.55;94754.91;5054469;28;20063;-78
2023/05/18 03:15:12;;;;;;;6.22;2.95;;;;;;;13.23;85.32;94733.91;5052486;28;20039;-78
2023/05/18 03:17:40;;;;;;;5.53;2.53;;;;;;;13.59;84.84;94790.63;5054426;28;20115;-78
2023/05/18 03:20:06;;;;;;;5.63;2.50;;;;;;;13.35;85.56;94772.22;5054163;28;20033;-78
2023/05/18 03:22:32;;;;;;;3.25;2.03;;;;;;;13.39;85.53;94791.09;5053542;28;20381;-78
2023/05/18 03:24:58;;;;;;;4.80;1.98;;;;;;;13.31;85.95;94775.81;5054102;28;20047;-78
2023/05/18 03:27:25;;;;;;;2.85;1.92;;;;;;;13.39;85.48;94794.53;5085540;28;20068;-78
2023/05/18 03:29:56;;;;;;;5.50;2.35;;;;;;;12.72;84.93;94711.81;5053576;28;20047;-78
2023/05/18 03:32:21;;;;;;;5.97;2.27;;;;;;;13.48;84.80;94807.94;5053469;28;20040;-78
2023/05/18 03:34:47;;;;;;;4.05;2.20;;;;;;;12.97;85.79;94755.72;5073128;28;20025;-78
2023/05/18 03:37:16;;;;;;;5.90;3.00;;;;;;;13.37;85.76;94806.56;5053582;28;20388;-78
2023/05/18 03:39:42;;;;;;;5.28;2.70;;;;;;;13.14;85.60;94760.47;5052036;28;20060;-79
2023/05/18 03:42:08;;;;;;;7.97;2.65;;;;;;;12.99;86.75;94755.44;5086027;28;20148;-79
2023/05/18 03:44:33;;;;;;;4.80;2.45;;;;;;;13.30;86.86;94783.00;5053435;28;20036;-79
2023/05/18 03:46:59;;;;;;;6.38;3.00;;;;;;;13.30;86.25;94772.34;5052003;28;20040;-79
2023/05/18 03:49:24;;;;;;;3.53;2.00;;;;;;;12.94;86.63;94776.84;5051419;28;20107;-79
2023/05/18 03:51:50;;;;;;;5.60;2.55;;;;;;;12.90;87.07;94805.09;5085608;28;20419;-78
2023/05/18 03:54:15;;;;;;;5.75;2.60;;;;;;;12.55;88.34;94793.28;5052026;28;20032;-78
2023/05/18 03:56:41;;;;;;;4.88;2.47;;;;;;;12.36;89.74;94764.09;5052136;28;20048;-78
2023/05/18 03:59:06;;;;;;;5.32;3.40;;;;;;;12.76;89.53;94823.75;5052572;28;20033;-78
2023/05/18 04:01:32;;;;;;;4.45;3.40;;;;;;;12.72;90.92;94820.91;5051815;28;20502;-78
2023/05/18 04:03:58;;;;;;;7.15;3.72;;;;;;;12.74;90.29;94809.94;5052821;28;20103;-78
2023/05/18 04:06:25;;;;;;;9.48;4.88;;;;;;;12.88;89.60;94812.63;5052809;28;20116;-79
2023/05/18 04:08:51;;;;;;;7.68;3.97;;;;;;;12.44;88.52;94744.00;5085508;28;20499;-78
2023/05/18 04:11:17;;;;;;;10.40;4.68;;;;;;;13.01;89.41;94830.44;5049051;28;20041;-79
2023/05/18 04:13:42;;;;;;;6.82;4.05;;;;;;;12.69;88.00;94778.91;5046807;28;20033;-79
2023/05/18 04:16:12;;;;;;;9.80;4.45;;;;;;;12.92;88.01;94808.28;5030365;28;20042;-80
2023/05/18 04:18:38;;;;;;;6.20;4.40;;;;;;;13.16;87.43;94843.50;5045462;28;20503;-78
2023/05/18 04:21:05;;;;;;;5.53;4.10;;;;;;;12.65;87.65;94809.84;5042897;28;20095;-78
2023/05/18 04:23:32;;;;;;;7.32;5.00;;;;;;;12.73;88.33;94803.84;5037356;28;20527;-78
2023/05/18 04:25:58;;;;;;;7.22;4.40;;;;;;;12.95;88.59;94832.44;5037050;28;20652;-79
2023/05/18 04:28:24;;;;;;;5.65;4.53;;;;;;;12.99;88.19;94814.78;5040904;28;20115;-78
2023/05/18 04:30:50;;;;;;;9.50;5.05;;;;;;;13.08;88.08;94815.66;5055022;28;20131;-79
2023/05/18 04:33:16;;;;;;;8.05;4.50;;;;;;;12.97;86.72;94794.88;5034481;28;20062;-79
2023/05/18 04:35:42;;;;;;;13.82;5.18;;;;;;;13.12;87.55;94813.22;5029049;28;20037;-80
2023/05/18 04:38:07;;;;;;;13.43;5.45;;;;;;;13.32;87.48;94825.31;5035256;28;20305;-79
2023/05/18 04:40:33;;;;;;;8.65;4.30;;;;;;;13.38;86.91;94845.44;5037644;28;20642;-78
2023/05/18 04:42:59;;;;;;;10.68;4.40;;;;;;;13.15;86.52;94823.28;5069749;28;20037;-78
2023/05/18 04:45:25;;;;;;;5.40;3.95;;;;;;;13.25;87.09;94830.28;5040785;28;20510;-79
2023/05/18 04:47:52;;;;;;;12.10;5.25;;;;;;;13.26;87.31;94832.63;5042668;28;20033;-78
2023/05/18 04:50:18;;;;;;;14.85;5.30;;;;;;;13.36;87.10;94818.31;5040552;28;20147;-79
2023/05/18 04:52:47;;;;;;;12.02;4.93;;;;;;;13.62;85.83;94853.97;5038431;28;20083;-79
2023/05/18 04:55:21;;;;;;;14.25;5.00;;;;;;;13.48;85.98;94813.25;5041009;28;20028;-78
2023/05/18 04:57:48;;;;;;;7.15;5.13;;;;;;;13.76;85.50;94836.06;5034118;28;20132;-78
2023/05/18 05:00:14;;;;;;;11.45;4.93;;;;;;;14.03;84.62;94863.72;5031168;28;20029;-78
2023/05/18 05:02:40;;;;;;;9.18;4.70;;;;;;;13.70;84.48;94826.63;5035433;28;20037;-79
2023/05/18 05:05:06;;;;;;;9.20;5.53;;;;;;;13.82;84.18;94839.41;5035964;28;20036;-79
2023/05/18 05:07:31;;;;;;;7.75;5.32;;;;;;;13.97;83.52;94864.91;5036722;28;20720;-79
2023/05/18 05:09:56;;;;;;;9.52;5.38;;;;;;;13.84;83.41;94850.56;5039908;28;20033;-79
2023/05/18 05:12:23;;;;;;;8.80;4.93;;;;;;;13.87;82.87;94864.09;5063958;28;20029;-80
2023/05/18 05:14:49;;;;;;;11.02;5.22;;;;;;;13.76;83.92;94870.72;5037366;28;20032;-80
2023/05/18 05:17:16;;;;;;;15.02;5.30;;;;;;;13.81;83.73;94857.25;5035660;28;20097;-81
2023/05/18 05:19:41;;;;;;;9.98;4.50;;;;;;;13.33;83.70;94774.44;5037004;28;20469;-79
2023/05/18 05:22:06;;;;;;;8.48;3.70;;;;;;;13.90;82.79;94865.34;5028914;28;20029;-80
2023/05/18 05:24:32;;;;;;;10.38;3.75;;;;;;;13.87;82.96;94844.63;5039099;28;20542;-80
2023/05/18 05:26:57;;;;;;;9.13;4.30;;;;;;;13.81;82.16;94870.59;5042476;28;20037;-79
2023/05/18 05:29:25;;;;;;;8.85;5.65;;;;;;;13.72;81.88;94868.97;5037585;28;20037;-80
2023/05/18 05:31:50;;;;;;;5.22;4.35;;;;;;;13.58;80.83;94876.19;5042818;28;20337;-80
2023/05/18 05:34:16;;;;;;;8.20;5.05;;;;;;;13.66;82.33;94891.44;5039786;28;20029;-81
2023/05/18 05:36:41;;;;;;;13.30;6.78;;;;;;;13.68;82.61;94884.75;5038105;28;20036;-81
2023/05/18 05:39:07;;;;;;;14.63;5.75;;;;;;;13.66;82.87;94881.59;5041362;28;20672;-80
2023/05/18 05:41:32;;;;;;;16.75;6.90;;;;;;;13.80;82.67;94909.03;5041533;28;20039;-80
2023/05/18 05:43:57;;;;;;;61.55;17.02;;;;;;;13.55;82.38;94874.91;5036634;28;20672;-80
2023/05/18 05:46:23;;;;;;;11.75;5.88;;;;;;;12.85;83.48;94797.25;5038358;28;20767;-80
2023/05/18 05:48:49;;;;;;;9.13;5.40;;;;;;;13.28;84.54;94869.59;5040258;28;20064;-80
2023/05/18 05:51:15;;;;;;;20.35;6.47;;;;;;;13.58;84.49;94913.50;5040669;28;20540;-82
2023/05/18 05:53:42;;;;;;;16.60;6.13;;;;;;;13.75;83.68;94910.97;5025967;28;20025;-81
2023/05/18 05:56:07;;;;;;;7.60;5.78;;;;;;;13.78;83.67;94921.06;5035022;28;20037;-80
2023/05/18 05:58:33;;;;;;;15.73;7.60;;;;;;;13.50;83.65;94867.03;5019258;28;20431;-80
2023/05/18 06:00:58;;;;;;;13.57;5.72;;;;;;;13.43;82.64;94882.59;5030913;28;20428;-81
2023/05/18 06:03:24;;;;;;;7.88;5.35;;;;;;;13.57;83.01;94886.06;5035876;28;20033;-78
2023/05/18 06:05:49;;;;;;;7.47;5.18;;;;;;;13.57;83.71;94917.25;5039017;28;20128;-78
2023/05/18 06:08:16;;;;;;;13.70;6.40;;;;;;;13.39;84.17;94900.28;5037172;28;20403;-79
2023/05/18 06:10:42;;;;;;;11.13;6.85;;;;;;;13.28;85.48;94885.59;5041583;28;20039;-81
2023/05/18 06:13:07;;;;;;;9.95;7.07;;;;;;;13.22;85.47;94878.78;5040533;28;20025;-78
2023/05/18 06:15:32;;;;;;;12.30;7.13;;;;;;;13.09;85.21;94886.47;5043413;28;20045;-79
2023/05/18 06:17:58;;;;;;;9.45;6.88;;;;;;;13.24;86.07;94922.69;5046101;28;20071;-79
2023/05/18 06:20:25;;;;;;;12.90;7.35;;;;;;;12.97;86.45;94874.72;5042223;28;20056;-77
2023/05/18 06:22:50;;;;;;;8.38;5.25;;;;;;;13.04;84.77;94883.91;5044916;28;20840;-80
2023/05/18 06:25:16;;;;;;;11.88;6.22;;;;;;;12.89;85.83;94888.72;5046512;28;20064;-78
2023/05/18 06:27:43;;;;;;;9.50;7.45;;;;;;;13.12;86.01;94912.47;5043139;28;20037;-79
2023/05/18 06:30:09;;;;;;;16.52;7.85;;;;;;;12.82;86.59;94893.63;5042432;28;20086;-78
2023/05/18 06:32:36;;;;;;;10.18;7.82;;;;;;;13.10;87.52;94913.88;5043317;28;20032;-78
2023/05/18 06:35:02;;;;;;;11.85;8.23;;;;;;;13.03;86.72;94903.63;5070609;28;20044;-78
2023/05/18 06:37:28;;;;;;;14.52;9.15;;;;;;;12.90;86.26;94867.13;5041615;28;20503;-79
2023/05/18 06:39:53;;;;;;;17.33;8.95;;;;;;;13.02;85.30;94885.28;5041591;28;20079;-79
2023/05/18 06:42:19;;;;;;;13.13;8.70;;;;;;;13.43;86.25;94944.66;5043361;28;20029;-78
2023/05/18 06:44:44;;;;;;;13.02;8.90;;;;;;;13.56;85.50;94951.09;5045052;28;20154;-78
2023/05/18 06:47:10;;;;;;;12.48;8.18;;;;;;;13.55;86.63;94962.03;5045174;28;20040;-79
2023/05/18 06:49:35;;;;;;;10.27;7.43;;;;;;;13.62;86.21;94925.91;5042589;28;20029;-79
2023/05/18 06:52:03;;;;;;;12.18;6.57;;;;;;;13.83;83.31;94945.72;5042689;28;20029;-80
2023/05/18 06:54:29;;;;;;;11.30;6.70;;;;;;;13.68;84.21;94922.06;5041483;28;20045;-78
2023/05/18 06:56:55;;;;;;;13.82;7.00;;;;;;;14.02;83.60;94963.47;5040994;28;20119;-76
2023/05/18 06:59:21;;;;;;;16.23;8.52;;;;;;;14.07;83.42;94955.34;5045243;28;20708;-77
2023/05/18 07:01:46;;;;;;;13.50;8.30;;;;;;;13.96;82.21;94933.44;5044629;28;20684;-78
2023/05/18 07:04:12;;;;;;;20.33;7.90;;;;;;;13.66;81.13;94902.09;5068261;28;20043;-78
2023/05/18 07:06:38;;;;;;;16.85;6.15;;;;;;;13.92;79.42;94980.47;5044967;28;20030;-80
2023/05/18 07:09:03;;;;;;;9.65;6.47;;;;;;;13.71;80.34;94939.34;5046768;28;20071;-82
2023/05/18 07:11:29;;;;;;;13.43;7.15;;;;;;;14.00;79.73;94960.31;5035185;28;20138;-79
2023/05/18 07:13:54;;;;;;;19.77;8.30;;;;;;;13.90;80.09;94946.09;5031909;28;20050;-78
2023/05/18 07:16:20;;;;;;;17.95;9.93;;;;;;;13.83;79.73;94935.06;5023491;28;20039;-78
2023/05/18 07:18:45;;;;;;;23.95;9.88;;;;;;;13.79;79.54;94944.75;5042249;28;20147;-78
2023/05/18 07:21:11;;;;;;;30.35;9.27;;;;;;;13.65;77.85;94938.66;5042465;28;20040;-78
2023/05/18 07:23:36;;;;;;;17.23;8.60;;;;;;;14.13;77.00;94992.28;5044840;28;20445;-76
2023/05/18 07:26:02;;;;;;;26.98;10.95;;;;;;;13.85;75.89;94946.22;5038946;28;20511;-77
2023/05/18 07:28:27;;;;;;;18.52;9.10;;;;;;;14.11;75.80;94999.78;5059737;28;20039;-77
2023/05/18 07:30:52;;;;;;;21.92;10.05;;;;;;;13.41;76.09;94871.47;5042637;28;20033;-78
2023/05/18 07:33:18;;;;;;;15.55;10.07;;;;;;;14.22;76.17;94995.00;5040893;28;20326;-77
2023/05/18 07:35:43;;;;;;;22.83;10.32;;;;;;;14.30;77.00;95007.66;5039982;28;20037;-77
2023/05/18 07:38:10;;;;;;;41.03;12.07;;;;;;;14.42;76.00;95002.59;5040543;28;20510;-78
2023/05/18 07:40:35;;;;;;;35.75;12.05;;;;;;;14.13;76.23;94964.81;5042279;28;20099;-80
2023/05/18 07:43:01;;;;;;;27.08;10.25;;;;;;;14.26;75.68;94998.69;5041891;28;20041;-78
2023/05/18 07:45:28;;;;;;;26.30;11.18;;;;;;;14.35;76.36;95001.41;5039947;28;20037;-78
2023/05/18 07:47:53;;;;;;;21.17;10.82;;;;;;;14.43;74.90;95024.72;5035510;28;20097;-78
2023/05/18 07:50:19;;;;;;;17.88;9.30;;;;;;;14.10;74.44;94984.09;5040777;28;20029;-78
2023/05/18 07:52:44;;;;;;;20.77;10.55;;;;;;;14.13;73.52;94978.13;5039165;28;20063;-80
2023/05/18 07:55:10;;;;;;;18.52;10.52;;;;;;;13.91;73.32;94939.69;5037621;28;20048;-78
2023/05/18 07:57:35;;;;;;;19.35;10.27;;;;;;;14.20;73.78;95018.53;5034704;28;20029;-80
2023/05/18 08:00:03;;;;;;;22.13;10.27;;;;;;;14.38;73.63;95017.63;5036159;28;20041;-78
2023/05/18 08:02:29;;;;;;;22.42;10.48;;;;;;;14.51;73.41;95034.69;5032772;28;20641;-78
2023/05/18 08:04:54;;;;;;;17.65;10.38;;;;;;;14.28;74.03;94988.47;5032018;28;20116;-76
2023/05/18 08:07:20;;;;;;;19.25;9.48;;;;;;;14.42;73.82;95036.50;5036058;28;20039;-77
2023/05/18 08:09:45;;;;;;;18.42;9.57;;;;;;;14.43;74.70;95025.50;5030947;28;20401;-77
2023/05/18 08:12:11;;;;;;;21.17;9.95;;;;;;;14.16;73.12;95012.22;5034021;28;20587;-79
2023/05/18 08:14:36;;;;;;;16.02;9.57;;;;;;;13.98;72.83;94983.81;5032906;28;20048;-79
2023/05/18 08:17:05;;;;;;;16.67;8.65;;;;;;;13.85;72.60;94964.09;5036288;28;20040;-79
2023/05/18 08:19:30;;;;;;;19.35;9.93;;;;;;;14.22;73.33;95038.47;5056574;28;20769;-79
2023/05/18 08:21:56;;;;;;;13.73;9.13;;;;;;;14.30;73.55;95042.31;5032950;28;20025;-79
2023/05/18 08:24:22;;;;;;;21.30;9.70;;;;;;;14.19;73.42;95038.28;5034283;28;20057;-79
2023/05/18 08:26:47;;;;;;;22.25;10.38;;;;;;;14.07;73.97;95012.13;5036985;28;20044;-79
2023/05/18 08:29:12;;;;;;;22.27;10.25;;;;;;;14.11;74.74;95029.09;5033249;28;20033;-79
2023/05/18 08:31:39;;;;;;;15.50;9.13;;;;;;;14.40;74.74;95073.38;5031809;28;20975;-79
2023/05/18 08:34:06;;;;;;;15.48;8.98;;;;;;;14.40;75.03;95079.50;5035578;28;20032;-79
2023/05/18 08:36:35;;;;;;;15.68;10.45;;;;;;;14.32;75.70;95090.03;5029622;28;20033;-79
2023/05/18 08:39:01;;;;;;;20.00;10.20;;;;;;;14.06;75.11;95053.22;5047783;28;20190;-79
2023/05/18 08:42:06;;;;;;;13.90;9.35;;;;;;;14.35;75.92;95090.22;5031587;28;20564;-78
2023/05/18 08:44:47;;;;;;;16.33;9.68;;;;;;;14.35;75.32;95090.22;5035708;28;20029;-83
2023/05/18 08:47:14;;;;;;;17.27;9.48;;;;;;;14.02;75.84;95036.25;5039317;28;20040;-83
2023/05/18 08:49:41;;;;;;;16.10;9.60;;;;;;;14.42;75.98;95100.53;5034172;28;20029;-80
2023/05/18 08:52:09;;;;;;;22.27;9.90;;;;;;;14.19;75.78;95062.28;5036904;28;20625;-81
2023/05/18 08:54:36;;;;;;;21.30;11.43;;;;;;;14.14;75.71;95057.84;5031389;28;20029;-81
2023/05/18 08:57:03;;;;;;;17.13;9.80;;;;;;;14.02;75.69;95032.78;5033875;28;20041;-81
2023/05/18 08:59:35;;;;;;;13.20;9.88;;;;;;;14.49;75.53;95108.94;5028818;28;20036;-80
2023/05/18 09:02:00;;;;;;;17.90;10.00;;;;;;;14.13;75.52;95047.47;5036977;28;20069;-84
2023/05/18 09:04:26;;;;;;;21.60;11.15;;;;;;;14.44;75.52;95098.34;5034705;28;20128;-81
2023/05/18 09:06:53;;;;;;;25.00;11.52;;;;;;;14.57;75.58;95108.97;5033665;28;20033;-81
2023/05/18 09:09:20;;;;;;;20.35;10.93;;;;;;;14.59;75.34;95114.81;5035533;28;20487;-80
2023/05/18 09:11:47;;;;;;;21.25;10.23;;;;;;;14.57;75.31;95103.66;5032741;28;20114;-80
2023/05/18 09:14:12;;;;;;;25.42;11.57;;;;;;;14.42;75.58;95079.19;5038135;28;20037;-83
2023/05/18 09:16:39;;;;;;;23.25;11.32;;;;;;;14.48;75.46;95096.66;5037365;28;20211;-83
2023/05/18 09:19:04;;;;;;;17.88;10.77;;;;;;;14.62;75.33;95110.78;5040193;28;20037;-82
2023/05/18 09:21:31;;;;;;;23.30;13.32;;;;;;;14.77;74.82;95125.66;5035008;28;20028;-83
2023/05/18 09:23:58;;;;;;;33.35;14.93;;;;;;;14.54;73.79;95090.94;5032107;28;20561;-82
2023/05/18 09:26:25;;;;;;;30.63;13.75;;;;;;;14.31;75.38;95059.91;5031627;28;20056;-82
2023/05/18 09:28:52;;;;;;;25.38;12.15;;;;;;;14.48;75.27;95086.00;5035786;28;20135;-80
2023/05/18 09:31:19;;;;;;;29.48;11.88;;;;;;;14.33;75.21;95054.28;5031626;28;20029;-82
2023/05/18 09:33:46;;;;;;;24.98;11.90;;;;;;;14.69;74.58;95105.81;5031508;28;20359;-80
2023/05/18 09:36:16;;;;;;;28.88;11.35;;;;;;;14.93;74.07;95130.38;5039393;28;20029;-83
2023/05/18 09:38:47;;;;;;;21.30;10.63;;;;;;;14.57;72.48;95087.63;5035756;28;20111;-83
2023/05/18 09:41:16;;;;;;;33.70;10.95;;;;;;;14.69;71.31;95140.50;5038972;28;20040;-82
2023/05/18 09:43:42;;;;;;;29.45;10.63;;;;;;;14.34;72.06;95091.34;5037143;28;20604;-83
2023/05/18 09:46:10;;;;;;;19.13;10.15;;;;;;;14.48;72.98;95144.69;5037617;28;20501;-82
2023/05/18 09:48:39;;;;;;;21.55;11.02;;;;;;;13.93;72.92;95048.69;5038199;28;20459;-87
2023/05/18 09:51:06;;;;;;;15.75;9.65;;;;;;;13.86;74.27;95094.41;5040478;28;20487;-83
2023/05/18 09:53:39;;;;;;;24.90;10.35;;;;;;;14.09;73.63;95095.31;5035147;28;20361;-84
2023/05/18 09:56:08;;;;;;;21.35;10.77;;;;;;;14.03;75.17;95136.50;5034607;28;20033;-85
2023/05/18 09:58:34;;;;;;;15.95;10.63;;;;;;;14.27;74.79;95139.72;5032282;28;20029;-81
2023/05/18 10:01:01;;;;;;;24.80;11.43;;;;;;;13.95;74.43;95131.03;5033716;28;20048;-86
2023/05/18 10:03:32;;;;;;;21.75;11.00;;;;;;;13.66;76.03;95105.44;5043901;28;20084;-84
2023/05/18 10:06:08;;;;;;;;;;;;;;;14.16;75.12;95142.91;5037298;28;20119;-82
2023/05/18 10:08:35;;;;;;;20.65;9.90;;;;;;;14.27;75.04;95157.59;5042085;28;20348;-81
2023/05/18 10:11:01;;;;;;;18.00;10.50;;;;;;;14.06;74.83;95135.09;5038509;28;20036;-79
2023/05/18 10:13:28;;;;;;;22.75;10.45;;;;;;;13.88;75.24;95148.19;5034281;28;20191;-79
2023/05/18 10:15:59;;;;;;;18.70;10.23;;;;;;;14.29;75.21;95158.91;5027219;28;21844;-79
2023/05/18 10:18:29;;;;;;;17.92;10.48;;;;;;;14.36;74.99;95163.03;5026697;28;20025;-79
2023/05/18 10:20:58;;;;;;;17.13;10.20;;;;;;;13.97;74.37;95144.84;5041211;28;20064;-83
2023/05/18 10:23:25;;;;;;;15.93;9.52;;;;;;;13.95;75.48;95145.16;5041347;28;20129;-81
2023/05/18 10:25:52;;;;;;;20.05;10.02;;;;;;;14.04;74.35;95161.25;5031151;28;20029;-79
2023/05/18 10:28:31;;;;;;;16.85;9.18;;;;;;;13.79;74.88;95123.34;5034056;28;20039;-81
2023/05/18 10:30:58;;;;;;;19.80;9.27;;;;;;;14.32;74.42;95165.53;5029689;28;20037;-80
2023/05/18 10:33:27;;;;;;;17.83;9.90;;;;;;;13.95;74.63;95083.84;5033031;28;20619;-85
2023/05/18 10:35:53;;;;;;;14.38;9.75;;;;;;;14.63;74.85;95179.09;5029888;28;20048;-83
2023/05/18 10:38:24;;;;;;;19.02;9.40;;;;;;;14.22;73.77;95176.38;5035066;28;20057;-79
2023/05/18 10:40:54;;;;;;;19.50;10.18;;;;;;;14.02;74.29;95129.56;5031545;28;20467;-80
2023/05/18 10:43:22;;;;;;;20.45;9.57;;;;;;;14.29;73.93;95142.09;5031312;28;20029;-80
2023/05/18 10:45:57;;;;;;;21.20;10.48;;;;;;;14.38;72.79;95180.38;5034951;28;20161;-80
2023/05/18 10:48:23;;;;;;;21.17;9.60;;;;;;;14.48;72.39;95184.72;5037362;28;20506;-80
2023/05/18 10:50:51;;;;;;;19.30;9.70;;;;;;;14.45;72.99;95188.78;5033300;28;20044;-80
2023/05/18 10:53:18;;;;;;;19.38;9.55;;;;;;;14.42;73.32;95157.34;5034226;28;20025;-82
2023/05/18 10:55:45;;;;;;;20.20;10.07;;;;;;;14.41;73.82;95144.31;5059512;28;20607;-84
2023/05/18 10:58:13;;;;;;;19.25;9.63;;;;;;;14.80;73.46;95199.81;5036534;28;20053;-82
2023/05/18 11:00:41;;;;;;;17.10;9.63;;;;;;;14.98;73.54;95193.53;5030679;28;20043;-82
2023/05/18 11:03:12;;;;;;;22.35;9.88;;;;;;;14.71;73.56;95156.25;5034928;28;20029;-82
2023/05/18 11:05:38;;;;;;;18.23;9.90;;;;;;;14.54;70.59;95170.97;5032722;28;20029;-82
2023/05/18 11:08:04;;;;;;;15.75;8.60;;;;;;;14.91;70.48;95207.31;5037687;28;20321;-82
2023/05/18 11:10:45;;;;;;;21.48;11.02;;;;;;;14.91;71.03;95196.63;5035326;28;20037;-80
2023/05/18 11:13:13;;;;;;;25.50;12.68;;;;;;;14.94;71.53;95201.38;5032689;28;20067;-80
2023/05/18 11:15:54;;;;;;;16.42;11.25;;;;;;;15.03;72.23;95212.13;5034890;28;20041;-80
2023/05/18 11:18:25;;;;;;;16.30;10.73;;;;;;;15.06;72.50;95217.66;5053748;28;20194;-82
2023/05/18 11:20:50;;;;;;;22.35;10.95;;;;;;;14.92;73.02;95182.19;5033230;28;20033;-81
2023/05/18 11:23:19;;;;;;;23.02;10.48;;;;;;;15.04;73.75;95197.69;5031490;28;20037;-81
2023/05/18 11:25:47;;;;;;;21.02;12.15;;;;;;;15.11;75.64;95222.09;5040513;28;20420;-85
2023/05/18 11:28:13;;;;;;;26.67;13.43;;;;;;;14.80;75.05;95175.81;5040735;28;20041;-83